createdAt,value
2022-08-21T00:00:27.618Z,101771.13
2022-08-21T00:03:00.466Z,101765.06
2022-08-21T00:05:27.234Z,101764.25
2022-08-21T00:07:53.909Z,101763.88
2022-08-21T00:10:20.688Z,101764.56
2022-08-21T00:12:47.909Z,101765.28
2022-08-21T00:15:19.941Z,101770.50
2022-08-21T00:17:46.853Z,101768.59
2022-08-21T00:20:15.666Z,101767.78
2022-08-21T00:22:42.920Z,101764.75
2022-08-21T00:25:11.054Z,101764.69
2022-08-21T00:27:38.167Z,101759.72
2022-08-21T00:30:07.785Z,101763.84
2022-08-21T00:32:34.833Z,101759.28
2022-08-21T00:35:01.546Z,101764.94
2022-08-21T00:37:28.149Z,101751.31
2022-08-21T00:39:57.527Z,101755.41
2022-08-21T00:42:24.294Z,101752.41
2022-08-21T00:44:52.035Z,101756.13
2022-08-21T00:47:19.835Z,101757.19
2022-08-21T00:49:46.591Z,101759.75
2022-08-21T00:52:27.832Z,101760.13
2022-08-21T00:54:57.813Z,101756.25
2022-08-21T00:57:33.584Z,101752.47
2022-08-21T01:00:04.314Z,101754.72
2022-08-21T01:02:31.898Z,101755.41
2022-08-21T01:04:58.458Z,101745.59
2022-08-21T01:07:27.649Z,101752.28
2022-08-21T01:09:54.354Z,101748.13
2022-08-21T01:12:20.935Z,101745.84
2022-08-21T01:14:47.690Z,101745.00
2022-08-21T01:17:16.612Z,101751.03
2022-08-21T01:19:44.240Z,101746.84
2022-08-21T01:22:11.027Z,101750.47
2022-08-21T01:24:37.575Z,101747.09
2022-08-21T01:27:04.724Z,101744.78
2022-08-21T01:29:37.306Z,101751.91
2022-08-21T01:32:15.936Z,101753.38
2022-08-21T01:34:44.432Z,101751.13
2022-08-21T01:37:12.446Z,101761.53
2022-08-21T01:39:39.492Z,101747.66
2022-08-21T01:42:06.899Z,101750.22
2022-08-21T01:44:35.406Z,101747.94
2022-08-21T01:47:06.282Z,101747.09
2022-08-21T01:49:33.185Z,101745.53
2022-08-21T01:51:59.729Z,101743.34
2022-08-21T01:54:26.634Z,101742.91
2022-08-21T01:56:54.976Z,101741.78
2022-08-21T01:59:24.763Z,101755.25
2022-08-21T02:01:51.762Z,101747.25
2022-08-21T02:04:18.339Z,101745.34
2022-08-21T02:06:45.197Z,101739.69
2022-08-21T02:09:12.660Z,101733.69
2022-08-21T02:11:42.062Z,101735.13
2022-08-21T02:14:09.800Z,101738.84
2022-08-21T02:16:36.783Z,101737.69
2022-08-21T02:19:04.235Z,101728.66
2022-08-21T02:21:31.199Z,101728.59
2022-08-21T02:23:57.806Z,101726.31
2022-08-21T02:26:24.739Z,101730.78
2022-08-21T02:28:51.346Z,101727.00
2022-08-21T02:31:17.922Z,101722.03
2022-08-21T02:33:44.554Z,101725.78
2022-08-21T02:36:12.207Z,101719.69
2022-08-21T02:38:40.990Z,101728.25
2022-08-21T02:41:11.576Z,101718.09
2022-08-21T02:43:38.128Z,101714.34
2022-08-21T02:46:06.269Z,101715.44
2022-08-21T02:48:34.210Z,101710.84
2022-08-21T02:51:07.398Z,101704.09
2022-08-21T02:53:35.157Z,101701.81
2022-08-21T02:56:04.160Z,101710.78
2022-08-21T02:58:34.267Z,101713.75
2022-08-21T03:01:00.889Z,101708.88
2022-08-21T03:03:29.171Z,101703.97
2022-08-21T03:05:56.463Z,101707.69
2022-08-21T03:08:26.500Z,101706.88
2022-08-21T03:10:54.843Z,101696.72
2022-08-21T03:13:21.964Z,101700.78
2022-08-21T03:15:50.123Z,101700.03
2022-08-21T03:18:17.168Z,101704.09
2022-08-21T03:20:46.055Z,101699.53
2022-08-21T03:23:14.400Z,101702.44
2022-08-21T03:25:46.781Z,101701.25
2022-08-21T03:28:16.621Z,101691.84
2022-08-21T03:30:44.937Z,101690.34
2022-08-21T03:33:12.934Z,101698.22
2022-08-21T03:35:44.038Z,101685.38
2022-08-21T03:38:10.908Z,101683.53
2022-08-21T03:40:37.413Z,101686.47
2022-08-21T03:43:03.979Z,101683.78
2022-08-21T03:45:30.565Z,101677.00
2022-08-21T03:48:03.465Z,101681.84
2022-08-21T03:50:32.726Z,101673.22
2022-08-21T03:53:01.941Z,101678.81
2022-08-21T03:55:28.472Z,101677.63
2022-08-21T03:57:55.020Z,101680.59
2022-08-21T04:00:21.874Z,101679.09
2022-08-21T04:02:48.596Z,101690.25
2022-08-21T04:05:28.121Z,101681.63
2022-08-21T04:07:57.211Z,101688.31
2022-08-21T04:10:25.528Z,101690.53
2022-08-21T04:12:53.554Z,101689.69
2022-08-21T04:15:21.126Z,101687.06
2022-08-21T04:17:47.796Z,101692.63
2022-08-21T04:20:14.368Z,101695.59
2022-08-21T04:22:40.936Z,101693.69
2022-08-21T04:25:08.406Z,101696.63
2022-08-21T04:27:35.709Z,101697.72
2022-08-21T04:30:02.409Z,101697.31
2022-08-21T04:32:29.076Z,101690.88
2022-08-21T04:35:01.031Z,101689.34
2022-08-21T04:37:28.083Z,101691.94
2022-08-21T04:39:57.593Z,101694.13
2022-08-21T04:42:25.692Z,101691.75
2022-08-21T04:44:52.597Z,101688.38
2022-08-21T04:47:22.357Z,101694.69
2022-08-21T04:50:03.682Z,101687.19
2022-08-21T04:52:30.203Z,101684.91
2022-08-21T04:54:56.724Z,101689.41
2022-08-21T04:57:23.317Z,101698.34
2022-08-21T05:00:11.146Z,101690.81
2022-08-21T05:02:41.906Z,101692.25
2022-08-21T05:05:09.122Z,101693.69
2022-08-21T05:07:41.883Z,101695.22
2022-08-21T05:10:10.454Z,101692.19
2022-08-21T05:12:40.694Z,101698.94
2022-08-21T05:15:07.702Z,101704.19
2022-08-21T05:17:40.100Z,101710.09
2022-08-21T05:20:07.151Z,101722.09
2022-08-21T05:22:33.677Z,101721.69
2022-08-21T05:25:00.194Z,101717.19
2022-08-21T05:27:27.847Z,101727.69
2022-08-21T05:29:54.520Z,101729.41
2022-08-21T05:32:24.203Z,101733.16
2022-08-21T05:34:51.512Z,101726.41
2022-08-21T05:37:18.148Z,101726.72
2022-08-21T05:40:20.180Z,101722.59
2022-08-21T05:42:31.693Z,101723.28
2022-08-21T05:44:58.263Z,101731.53
2022-08-21T05:47:25.816Z,101734.41
2022-08-21T05:49:52.346Z,101722.00
2022-08-21T05:52:22.576Z,101732.13
2022-08-21T05:54:49.363Z,101729.91
2022-08-21T05:57:16.191Z,101723.16
2022-08-21T05:59:42.816Z,101728.66
2022-08-21T06:02:09.442Z,101722.41
2022-08-21T06:04:40.135Z,101729.63
2022-08-21T06:07:07.569Z,101730.88
2022-08-21T06:09:34.443Z,101719.63
2022-08-21T06:12:09.505Z,101729.00
2022-08-21T06:14:37.388Z,101730.22
2022-08-21T06:17:09.371Z,101731.72
2022-08-21T06:19:36.424Z,101729.59
2022-08-21T06:22:03.603Z,101735.56
2022-08-21T06:24:30.304Z,101732.38
2022-08-21T06:26:57.578Z,101729.25
2022-08-21T06:29:24.809Z,101737.13
2022-08-21T06:31:52.491Z,101734.66
2022-08-21T06:34:19.573Z,101726.59
2022-08-21T06:36:46.241Z,101738.53
2022-08-21T06:39:16.449Z,101739.56
2022-08-21T06:41:51.593Z,101738.88
2022-08-21T06:44:18.696Z,101734.47
2022-08-21T06:46:47.598Z,101743.75
2022-08-21T06:49:21.724Z,101741.50
2022-08-21T06:51:48.748Z,101730.53
2022-08-21T06:54:15.331Z,101732.88
2022-08-21T06:56:41.958Z,101746.03
2022-08-21T06:59:08.601Z,101740.63
2022-08-21T07:01:35.269Z,101746.06
2022-08-21T07:04:01.783Z,101737.25
2022-08-21T07:06:28.379Z,101740.59
2022-08-21T07:08:58.807Z,101728.44
2022-08-21T07:11:26.114Z,101739.31
2022-08-21T07:13:55.121Z,101738.69
2022-08-21T07:16:22.447Z,101730.41
2022-08-21T07:18:50.370Z,101724.72
2022-08-21T07:21:17.713Z,101728.72
2022-08-21T07:23:47.409Z,101729.22
2022-08-21T07:26:16.078Z,101723.31
2022-08-21T07:28:42.718Z,101720.75
2022-08-21T07:31:11.434Z,101725.84
2022-08-21T07:33:38.071Z,101725.22
2022-08-21T07:36:04.853Z,101733.53
2022-08-21T07:38:31.384Z,101730.22
2022-08-21T07:41:00.486Z,101730.03
2022-08-21T07:43:27.653Z,101736.38
2022-08-21T07:45:55.420Z,101733.88
2022-08-21T07:48:23.577Z,101724.31
2022-08-21T07:50:51.000Z,101732.78
2022-08-21T07:53:18.144Z,101727.38
2022-08-21T07:55:44.638Z,101734.31
2022-08-21T07:58:11.305Z,101736.94
2022-08-21T08:00:38.071Z,101729.38
2022-08-21T08:03:04.826Z,101732.94
2022-08-21T08:05:33.070Z,101728.50
2022-08-21T08:08:00.035Z,101739.41
2022-08-21T08:10:28.285Z,101718.00
2022-08-21T08:12:55.815Z,101720.47
2022-08-21T08:15:25.726Z,101712.25
2022-08-21T08:17:52.718Z,101713.91
2022-08-21T08:20:20.949Z,101711.75
2022-08-21T08:22:50.266Z,101707.94
2022-08-21T08:25:18.707Z,101708.97
2022-08-21T08:27:45.267Z,101712.28
2022-08-21T08:30:15.060Z,101706.38
2022-08-21T08:32:42.308Z,101704.91
2022-08-21T08:35:09.951Z,101701.09
2022-08-21T08:37:39.318Z,101700.38
2022-08-21T08:40:36.779Z,101708.94
2022-08-21T08:43:06.407Z,101708.31
2022-08-21T08:45:37.423Z,101708.94
2022-08-21T08:48:14.210Z,101708.63
2022-08-21T08:50:58.301Z,101712.31
2022-08-21T08:53:43.179Z,101707.03
2022-08-21T08:56:10.194Z,101706.75
2022-08-21T08:58:42.038Z,101702.06
2022-08-21T09:01:18.307Z,101704.97
2022-08-21T09:03:51.125Z,101699.38
2022-08-21T09:07:07.466Z,101698.22
2022-08-21T09:09:39.124Z,101699.31
2022-08-21T09:12:15.650Z,101696.44
2022-08-21T09:14:51.167Z,101693.88
2022-08-21T09:17:27.655Z,101691.06
2022-08-21T09:20:08.079Z,101689.16
2022-08-21T09:22:46.885Z,101697.81
2022-08-21T09:25:22.087Z,101675.63
2022-08-21T09:27:51.791Z,101685.28
2022-08-21T09:30:20.669Z,101689.75
2022-08-21T09:32:50.279Z,101690.41
2022-08-21T09:35:23.443Z,101688.69
2022-08-21T09:38:02.049Z,101692.34
2022-08-21T09:40:36.345Z,101695.69
2022-08-21T09:43:07.023Z,101697.81
2022-08-21T09:45:35.188Z,101698.78
2022-08-21T09:48:22.257Z,101704.63
2022-08-21T09:50:54.507Z,101704.19
2022-08-21T09:53:27.673Z,101697.50
2022-08-21T09:56:18.511Z,101705.63
2022-08-21T09:58:50.207Z,101703.59
2022-08-21T10:01:22.781Z,101700.31
2022-08-21T10:04:04.636Z,101689.84
2022-08-21T10:06:31.466Z,101695.09
2022-08-21T10:09:15.095Z,101684.38
2022-08-21T10:11:49.835Z,101690.19
2022-08-21T10:14:48.614Z,101693.06
2022-08-21T10:17:27.046Z,101697.34
2022-08-21T10:20:08.863Z,101687.72
2022-08-21T10:23:02.420Z,101696.59
2022-08-21T10:25:38.827Z,101684.00
2022-08-21T10:28:17.895Z,101683.38
2022-08-21T10:30:57.089Z,101679.00
2022-08-21T10:33:47.545Z,101690.19
2022-08-21T10:36:32.860Z,101685.00
2022-08-21T10:39:37.287Z,101677.78
2022-08-21T10:42:18.535Z,101672.81
2022-08-21T10:44:48.119Z,101680.94
2022-08-21T10:47:43.005Z,101675.66
2022-08-21T10:50:29.800Z,101665.50
2022-08-21T10:53:35.336Z,101676.59
2022-08-21T10:56:19.431Z,101676.84
2022-08-21T10:58:55.036Z,101658.34
2022-08-21T11:01:30.537Z,101662.56
2022-08-21T11:04:12.307Z,101662.84
2022-08-21T11:06:42.990Z,101666.63
2022-08-21T11:09:15.987Z,101664.31
2022-08-21T11:11:50.113Z,101667.63
2022-08-21T11:14:50.159Z,101659.56
2022-08-21T11:17:22.707Z,101652.28
2022-08-21T11:20:03.466Z,101654.41
2022-08-21T11:22:39.225Z,101659.03
2022-08-21T11:25:18.532Z,101650.66
2022-08-21T11:28:00.402Z,101654.81
2022-08-21T11:30:40.639Z,101649.50
2022-08-21T11:33:35.472Z,101648.78
2022-08-21T11:36:11.284Z,101651.16
2022-08-21T11:38:43.140Z,101657.41
2022-08-21T11:41:21.883Z,101651.66
2022-08-21T11:43:54.164Z,101655.03
2022-08-21T11:46:36.439Z,101652.50
2022-08-21T11:49:24.685Z,101659.34
2022-08-21T11:52:15.912Z,101659.69
2022-08-21T11:54:48.186Z,101672.75
2022-08-21T11:57:25.412Z,101663.34
2022-08-21T12:00:14.587Z,101663.63
2022-08-21T12:02:48.849Z,101671.72
2022-08-21T12:05:39.355Z,101667.53
2022-08-21T12:08:27.990Z,101670.16
2022-08-21T12:11:10.913Z,101665.72
2022-08-21T12:13:55.620Z,101670.72
2022-08-21T12:16:33.083Z,101666.41
2022-08-21T12:19:11.982Z,101655.66
2022-08-21T12:21:58.911Z,101660.03
2022-08-21T12:24:28.487Z,101661.13
2022-08-21T12:26:59.990Z,101662.78
2022-08-21T12:29:33.435Z,101662.56
2022-08-21T12:32:23.298Z,101657.69
2022-08-21T12:34:54.880Z,101665.34
2022-08-21T12:37:37.937Z,101667.31
2022-08-21T12:40:11.518Z,101662.00
2022-08-21T12:42:56.647Z,101664.25
2022-08-21T12:45:37.754Z,101655.28
2022-08-21T12:48:13.767Z,101668.78
2022-08-21T12:50:52.222Z,101663.81
2022-08-21T12:53:30.960Z,101664.00
2022-08-21T12:56:02.345Z,101670.19
2022-08-21T12:58:29.101Z,101675.16
2022-08-21T13:01:07.794Z,101672.00
2022-08-21T13:03:38.739Z,101676.03
2022-08-21T13:06:07.119Z,101676.09
2022-08-21T13:08:40.798Z,101674.84
2022-08-21T13:11:14.908Z,101678.66
2022-08-21T13:13:47.048Z,101679.59
2022-08-21T13:16:25.223Z,101680.69
2022-08-21T13:19:00.645Z,101684.50
2022-08-21T13:21:36.616Z,101685.22
2022-08-21T13:24:41.956Z,101685.88
2022-08-21T13:27:28.767Z,101668.31
2022-08-21T13:30:08.808Z,101670.56
2022-08-21T13:32:38.875Z,101666.44
2022-08-21T13:35:24.699Z,101670.53
2022-08-21T13:37:52.876Z,101665.75
2022-08-21T13:40:43.182Z,101662.47
2022-08-21T13:43:19.890Z,101655.81
2022-08-21T13:45:53.649Z,101665.56
2022-08-21T13:48:22.860Z,101658.75
2022-08-21T13:50:50.121Z,101658.22
2022-08-21T13:53:31.173Z,101648.91
2022-08-21T13:56:00.963Z,101654.59
2022-08-21T13:58:47.277Z,101657.03
2022-08-21T14:02:15.305Z,101664.09
2022-08-21T14:04:55.747Z,101661.00
2022-08-21T14:07:30.533Z,101660.00
2022-08-21T14:09:57.061Z,101660.50
2022-08-21T14:12:36.353Z,101661.41
2022-08-21T14:15:08.497Z,101663.13
2022-08-21T14:17:38.579Z,101662.84
2022-08-21T14:20:08.192Z,101660.69
2022-08-21T14:22:44.543Z,101654.09
2022-08-21T14:25:20.260Z,101658.47
2022-08-21T14:28:00.092Z,101658.97
2022-08-21T14:30:30.597Z,101662.31
2022-08-21T14:32:57.420Z,101661.59
2022-08-21T14:35:24.570Z,101659.81
2022-08-21T14:37:52.227Z,101665.63
2022-08-21T14:40:21.020Z,101661.31
2022-08-21T14:42:47.902Z,101667.63
2022-08-21T14:45:15.950Z,101664.34
2022-08-21T14:47:43.691Z,101671.34
2022-08-21T14:50:12.986Z,101664.19
2022-08-21T14:52:41.358Z,101666.34
2022-08-21T14:55:11.648Z,101664.66
2022-08-21T14:57:38.441Z,101663.34
2022-08-21T15:00:06.199Z,101670.09
2022-08-21T15:02:32.689Z,101674.13
2022-08-21T15:04:59.212Z,101678.59
2022-08-21T15:07:25.964Z,101682.63
2022-08-21T15:09:52.447Z,101680.97
2022-08-21T15:12:19.283Z,101681.78
2022-08-21T15:14:45.868Z,101683.53
2022-08-21T15:17:13.291Z,101676.44
2022-08-21T15:19:40.528Z,101685.22
2022-08-21T15:22:15.293Z,101688.81
2022-08-21T15:24:45.497Z,101690.19
2022-08-21T15:27:13.821Z,101680.72
2022-08-21T15:29:43.532Z,101680.34
2022-08-21T15:32:23.930Z,101690.72
2022-08-21T15:34:54.988Z,101695.56
2022-08-21T15:37:22.164Z,101690.78
2022-08-21T15:39:53.751Z,101693.84
2022-08-21T15:42:21.992Z,101695.34
2022-08-21T15:44:49.373Z,101684.84
2022-08-21T15:47:19.489Z,101692.25
2022-08-21T15:49:46.519Z,101694.09
2022-08-21T15:52:15.467Z,101689.28
2022-08-21T15:54:42.481Z,101700.41
2022-08-21T15:57:12.949Z,101699.38
2022-08-21T15:59:42.869Z,101706.00
2022-08-21T16:02:15.888Z,101700.50
2022-08-21T16:04:42.754Z,101699.13
2022-08-21T16:07:09.957Z,101702.06
2022-08-21T16:09:36.675Z,101709.50
2022-08-21T16:12:05.543Z,101701.00
2022-08-21T16:14:33.079Z,101710.09
2022-08-21T16:16:59.598Z,101702.66
2022-08-21T16:19:28.948Z,101694.59
2022-08-21T16:21:55.534Z,101702.78
2022-08-21T16:24:22.029Z,101693.66
2022-08-21T16:26:57.572Z,101693.19
2022-08-21T16:29:25.972Z,101695.56
2022-08-21T16:31:53.723Z,101697.22
2022-08-21T16:34:20.982Z,101686.13
2022-08-21T16:36:48.041Z,101690.75
2022-08-21T16:39:14.740Z,101687.44
2022-08-21T16:41:41.469Z,101693.16
2022-08-21T16:44:09.770Z,101689.88
2022-08-21T16:46:40.541Z,101693.16
2022-08-21T16:49:08.031Z,101692.28
2022-08-21T16:51:34.614Z,101691.25
2022-08-21T16:54:01.323Z,101691.41
2022-08-21T16:56:28.589Z,101682.50
2022-08-21T16:58:56.710Z,101687.00
2022-08-21T17:01:28.088Z,101687.78
2022-08-21T17:03:54.779Z,101685.88
2022-08-21T17:06:23.415Z,101686.19
2022-08-21T17:08:56.488Z,101698.91
2022-08-21T17:11:38.538Z,101692.81
2022-08-21T17:14:22.211Z,101695.97
2022-08-21T17:16:52.726Z,101687.78
2022-08-21T17:19:19.853Z,101695.84
2022-08-21T17:21:46.404Z,101688.09
2022-08-21T17:24:15.477Z,101687.81
2022-08-21T17:26:43.748Z,101690.91
2022-08-21T17:29:14.397Z,101695.81
2022-08-21T17:31:42.281Z,101691.63
2022-08-21T17:34:10.156Z,101700.84
2022-08-21T17:36:36.981Z,101703.19
2022-08-21T17:39:05.107Z,101700.19
2022-08-21T17:41:31.797Z,101694.38
2022-08-21T17:44:11.711Z,101695.97
2022-08-21T17:46:41.672Z,101696.25
2022-08-21T17:49:09.246Z,101693.34
2022-08-21T17:51:36.036Z,101693.63
2022-08-21T17:54:02.592Z,101692.50
2022-08-21T17:56:32.258Z,101687.53
2022-08-21T17:58:58.937Z,101688.66
2022-08-21T18:01:31.164Z,101699.72
2022-08-21T18:03:57.662Z,101702.31
2022-08-21T18:06:24.237Z,101698.41
2022-08-21T18:08:50.780Z,101703.69
2022-08-21T18:11:23.534Z,101699.13
2022-08-21T18:13:51.902Z,101701.28
2022-08-21T18:16:23.233Z,101702.47
2022-08-21T18:18:51.732Z,101697.47
2022-08-21T18:21:18.639Z,101697.66
2022-08-21T18:23:45.306Z,101700.38
2022-08-21T18:26:15.643Z,101695.56
2022-08-21T18:28:44.210Z,101693.56
2022-08-21T18:31:12.438Z,101691.63
2022-08-21T18:33:43.610Z,101694.19
2022-08-21T18:36:19.839Z,101686.47
2022-08-21T18:38:46.446Z,101701.19
2022-08-21T18:41:13.329Z,101691.13
2022-08-21T18:43:40.029Z,101694.81
2022-08-21T18:46:06.752Z,101696.53
2022-08-21T18:48:33.613Z,101702.47
2022-08-21T18:51:01.330Z,101701.56
2022-08-21T18:53:31.150Z,101693.75
2022-08-21T18:56:04.963Z,101696.72
2022-08-21T18:58:33.062Z,101707.22
2022-08-21T19:01:00.047Z,101707.06
2022-08-21T19:03:27.485Z,101706.56
2022-08-21T19:05:54.933Z,101722.28
2022-08-21T19:08:24.293Z,101707.72
2022-08-21T19:10:55.515Z,101717.38
2022-08-21T19:13:23.051Z,101717.19
2022-08-21T19:15:55.127Z,101705.19
2022-08-21T19:18:28.206Z,101709.19
2022-08-21T19:20:57.513Z,101723.03
2022-08-21T19:23:29.342Z,101720.59
2022-08-21T19:26:00.501Z,101725.66
2022-08-21T19:28:32.138Z,101721.38
2022-08-21T19:31:10.155Z,101720.41
2022-08-21T19:33:44.326Z,101720.19
2022-08-21T19:36:17.040Z,101731.03
2022-08-21T19:38:44.587Z,101727.81
2022-08-21T19:41:15.623Z,101725.97
2022-08-21T19:43:49.845Z,101733.38
2022-08-21T19:46:23.660Z,101728.53
2022-08-21T19:48:53.040Z,101730.22
2022-08-21T19:51:19.921Z,101731.06
2022-08-21T19:53:46.892Z,101727.38
2022-08-21T19:56:24.318Z,101723.34
2022-08-21T19:58:52.488Z,101718.53
2022-08-21T20:01:22.109Z,101729.63
2022-08-21T20:03:53.825Z,101735.84
2022-08-21T20:06:24.987Z,101741.28
2022-08-21T20:08:53.027Z,101734.94
2022-08-21T20:11:26.179Z,101738.41
2022-08-21T20:13:53.883Z,101738.44
2022-08-21T20:16:21.783Z,101737.03
2022-08-21T20:18:49.045Z,101738.69
2022-08-21T20:21:16.310Z,101742.56
2022-08-21T20:23:49.313Z,101742.69
2022-08-21T20:26:17.071Z,101739.34
2022-08-21T20:28:43.609Z,101740.53
2022-08-21T20:31:10.801Z,101733.00
2022-08-21T20:33:38.198Z,101741.44
2022-08-21T20:36:05.169Z,101741.84
2022-08-21T20:38:31.849Z,101735.84
2022-08-21T20:40:59.023Z,101737.44
2022-08-21T20:43:28.034Z,101737.50
2022-08-21T20:45:55.281Z,101731.53
2022-08-21T20:48:28.434Z,101741.03
2022-08-21T20:51:05.660Z,101738.44
2022-08-21T20:53:57.663Z,101737.00
2022-08-21T20:56:54.436Z,101733.94
2022-08-21T20:59:33.228Z,101736.28
2022-08-21T21:02:29.017Z,101728.03
2022-08-21T21:05:03.473Z,101733.38
2022-08-21T21:07:52.258Z,101742.47
2022-08-21T21:10:29.424Z,101733.44
2022-08-21T21:13:03.242Z,101734.25
2022-08-21T21:15:32.836Z,101739.56
2022-08-21T21:21:18.183Z,101735.47
2022-08-21T21:23:50.664Z,101740.38
2022-08-21T21:26:29.311Z,101738.53
2022-08-21T21:29:13.278Z,101741.19
2022-08-21T21:31:41.485Z,101744.25
2022-08-21T21:34:08.141Z,101740.50
2022-08-21T21:36:56.400Z,101737.47
2022-08-21T21:39:49.450Z,101742.44
2022-08-21T21:42:29.939Z,101747.34
2022-08-21T21:45:18.005Z,101750.38
2022-08-21T21:48:11.651Z,101752.66
2022-08-21T21:51:00.854Z,101753.81
2022-08-21T21:53:39.819Z,101749.28
2022-08-21T21:56:13.922Z,101751.19
2022-08-21T21:59:09.891Z,101744.00
2022-08-21T22:02:00.707Z,101739.47
2022-08-21T22:04:51.043Z,101746.66
2022-08-21T22:07:37.589Z,101742.50
2022-08-21T22:10:34.327Z,101744.38
2022-08-21T22:13:25.240Z,101742.09
2022-08-21T22:15:53.605Z,101746.66
2022-08-21T22:18:25.737Z,101744.41
2022-08-21T22:21:12.884Z,101739.13
2022-08-21T22:23:48.194Z,101739.88
2022-08-21T22:26:22.348Z,101741.78
2022-08-21T22:28:52.780Z,101748.19
2022-08-21T22:31:31.184Z,101749.28
2022-08-21T22:34:18.124Z,101744.38
2022-08-21T22:36:55.353Z,101742.50
2022-08-21T22:39:41.835Z,101741.34
2022-08-21T22:48:04.783Z,101740.59
2022-08-21T22:50:33.754Z,101735.72
2022-08-21T22:53:07.697Z,101740.59
2022-08-21T22:55:45.921Z,101745.13
2022-08-21T22:58:22.521Z,101740.22
2022-08-21T23:00:58.232Z,101744.00
2022-08-21T23:03:34.814Z,101740.56
2022-08-21T23:06:13.072Z,101742.47
2022-08-21T23:08:39.985Z,101739.44
2022-08-21T23:11:17.915Z,101741.34
2022-08-21T23:13:47.606Z,101738.31
2022-08-21T23:16:47.503Z,101733.78
2022-08-21T23:19:44.145Z,101730.75
2022-08-21T23:22:32.545Z,101730.75
2022-08-21T23:25:36.799Z,101728.50
2022-08-21T23:28:20.707Z,101725.84
2022-08-21T23:30:53.472Z,101729.97
2022-08-21T23:33:57.680Z,101728.09
2022-08-21T23:36:51.485Z,101730.66
2022-08-21T23:39:39.892Z,101731.41
2022-08-21T23:42:18.820Z,101721.25
2022-08-21T23:45:17.301Z,101726.13
2022-08-21T23:51:14.432Z,101725.00
2022-08-21T23:54:02.181Z,101722.38
2022-08-21T23:57:10.732Z,101724.63
2022-08-21T23:59:43.391Z,101719.72
